Arklow Raider — EIXS — position and weather

sailwx.info

Track history (hours):
 
Tides and Currents Weather Stations Pressure Air Temp Water Temp Dewpoint Dewpoint Depression Visibility Wind Speed Wind Dir Waves Ship Positions

Arklow Raider

Last reported at 2015-Jul-29 04:33 UTC. Time now 2015-Jul-29 04:50 UTC.
Position N 51°14' E 003°48'.

Length 90 m; draft 5.8 m.

Type: Ship. MMSI: 250001268.

Date/timePositionNaut miles runAvg speedWind from/ knotsBaromVisibWave heightAir tempDewpointWater temp
2015-Jul-29 04:33N 51°14' E 003°48'0 0.1
2015-Jul-29 03:30N 51°14' E 003°48'0 0.0
2015-Jul-29 02:33N 51°14' E 003°48'0 0.0
2015-Jul-29 01:33N 51°14' E 003°48'0 0.0
2015-Jul-29 00:30N 51°14' E 003°48'0 0.0
2015-Jul-28 23:33N 51°14' E 003°48'0 0.0
2015-Jul-28 22:33N 51°14' E 003°48'0 0.0
2015-Jul-28 21:33N 51°14' E 003°48'0 0.0
2015-Jul-28 20:33N 51°14' E 003°48'0 0.0
2015-Jul-28 19:33N 51°14' E 003°48'0 0.0
2015-Jul-28 18:33N 51°14' E 003°48'0 0.0
2015-Jul-28 17:27N 51°14' E 003°48'0 0.0
2015-Jul-28 16:33N 51°14' E 003°48'0 0.0
2015-Jul-28 15:33N 51°14' E 003°48'0 0.0
2015-Jul-28 14:33N 51°14' E 003°48'0 0.0
2015-Jul-28 13:33N 51°14' E 003°48'0 0.0
2015-Jul-28 12:33N 51°14' E 003°48'0 0.0
2015-Jul-28 11:30N 51°14' E 003°48'0 0.2
2015-Jul-28 10:33N 51°14' E 003°49'2 1.6
2015-Jul-28 09:33N 51°16' E 003°50'0 0.0
2015-Jul-28 08:30N 51°16' E 003°50'0 0.0
2015-Jul-28 07:33N 51°16' E 003°50'0 0.0
2015-Jul-28 06:30N 51°16' E 003°50'0 0.0
2015-Jul-28 05:33N 51°16' E 003°50'0 0.0
2015-Jul-28 04:33N 51°16' E 003°50'0 0.0
2015-Jul-28 03:33N 51°16' E 003°50'0 0.0
2015-Jul-28 02:33N 51°16' E 003°50'0 0.0
2015-Jul-28 01:30N 51°16' E 003°50'0 0.0
2015-Jul-28 00:33N 51°16' E 003°50'0 0.0
2015-Jul-27 23:33N 51°16' E 003°50'0 0.0
2015-Jul-27 22:30N 51°16' E 003°50'0 0.0
2015-Jul-27 21:33N 51°16' E 003°50'0 0.0
2015-Jul-27 20:33N 51°16' E 003°50'0 0.0
2015-Jul-27 19:33N 51°16' E 003°50'0 0.0
2015-Jul-27 18:33N 51°16' E 003°50'0 0.0
2015-Jul-27 17:33N 51°16' E 003°50'0 0.0
2015-Jul-27 16:33N 51°16' E 003°50'0 0.0
2015-Jul-27 15:33N 51°16' E 003°50'0 0.0
2015-Jul-27 14:27N 51°16' E 003°50'0 0.0
2015-Jul-27 13:33N 51°16' E 003°50'0 0.0
2015-Jul-27 12:33N 51°16' E 003°50'0 0.0
2015-Jul-27 11:30N 51°16' E 003°50'0 0.0
2015-Jul-27 10:30N 51°16' E 003°50'0 0.0
2015-Jul-27 09:33N 51°16' E 003°50'0 0.0
2015-Jul-27 08:33N 51°16' E 003°50'0 0.0
2015-Jul-27 07:27N 51°16' E 003°50'0 0.0
2015-Jul-27 06:33N 51°16' E 003°50'0 0.0
2015-Jul-27 05:33N 51°16' E 003°50'0 0.0
2015-Jul-27 04:33N 51°16' E 003°50'0 0.0
2015-Jul-27 03:30N 51°16' E 003°50'0 0.0
2015-Jul-27 02:30N 51°16' E 003°50'0 0.0
2015-Jul-27 01:33N 51°16' E 003°50'0 0.0
2015-Jul-27 00:33N 51°16' E 003°50'0 0.0
2015-Jul-26 23:33N 51°16' E 003°50'0 0.0
2015-Jul-26 22:30N 51°16' E 003°50'0 0.0
2015-Jul-26 21:33N 51°16' E 003°50'4 4.2
2015-Jul-26 20:33N 51°20' E 003°49'0 0.3
2015-Jul-26 19:33N 51°20' E 003°49'8 8.3
2015-Jul-26 18:33N 51°25' E 003°38'11 9.8
2015-Jul-26 17:25N 51°24' E 003°21'1210.9
2015-Jul-26 16:21N 51°24' E 003°02'810.5
2015-Jul-26 15:34N 51°22' E 002°49'7 6.8
2015-Jul-26 14:33N 51°22' E 002°38'9 7.7
2015-Jul-26 13:23N 51°20' E 002°24'6 6.8
2015-Jul-26 12:31N 51°17' E 002°16'7 6.9
2015-Jul-26 11:34N 51°14' E 002°07'8 7.7
2015-Jul-26 10:33N 51°10' E 001°56'10 9.6
2015-Jul-26 09:33N 51°04' E 001°44'325 9.8
2015-Jul-25 00:33N 48°11' W 005°20'9 8.7
2015-Jul-24 23:33N 48°04' W 005°13'17410.1
2015-Jul-24 06:19N 46°05' W 002°06'911.0
2015-Jul-24 05:29N 45°59' W 001°56'2111.0
2015-Jul-24 03:33N 45°44' W 001°34'1211.5
2015-Jul-24 02:32N 45°36' W 001°22'1411.2
2015-Jul-24 01:19N 45°34' W 001°02'2313.2
2015-Jul-23 23:33N 45°15' W 000°45'54 2.3
2015-Jul-23 00:04N 45°57' W 001°33'3 6.4
2015-Jul-22 23:33N 45°60' W 001°35'7 6.1
2015-Jul-22 22:21N 46°07' W 001°38'5 6.3
2015-Jul-22 21:33N 46°12' W 001°40'6 6.4
2015-Jul-22 20:33N 46°18' W 001°42'6 6.2
2015-Jul-22 19:33N 46°24' W 001°45'6 6.0
2015-Jul-22 18:31N 46°30' W 001°48'0 0.0
2015-Jul-22 17:31N 46°30' W 001°48'0 0.0
2015-Jul-22 16:31N 46°30' W 001°48'0 0.0
2015-Jul-22 15:31N 46°30' W 001°48'0 0.0
2015-Jul-22 14:31N 46°30' W 001°48'0 0.0
2015-Jul-22 13:31N 46°30' W 001°48'0 0.0
2015-Jul-22 12:31N 46°30' W 001°48'0 0.0
2015-Jul-22 11:31N 46°30' W 001°48'0 0.0
2015-Jul-22 10:31N 46°30' W 001°48'0 0.0
2015-Jul-22 09:31N 46°30' W 001°48'0 0.0
2015-Jul-22 08:31N 46°30' W 001°48'0 0.0
2015-Jul-22 07:28N 46°30' W 001°48'0 0.0
2015-Jul-22 06:31N 46°30' W 001°48'0 0.0
2015-Jul-22 05:31N 46°30' W 001°48'0 0.0
2015-Jul-22 04:31N 46°30' W 001°48'0 0.0
2015-Jul-22 03:31N 46°30' W 001°48'0 0.0
2015-Jul-22 02:31N 46°30' W 001°48'0 0.0
2015-Jul-22 01:31N 46°30' W 001°48'0 0.0
2015-Jul-22 00:31N 46°30' W 001°48'0 0.0
2015-Jul-21 23:31N 46°30' W 001°48'0 0.0
2015-Jul-21 22:31N 46°30' W 001°48'0 0.0
2015-Jul-21 21:31N 46°30' W 001°48'0 0.0
2015-Jul-21 20:31N 46°30' W 001°48'0 0.0
2015-Jul-21 19:31N 46°30' W 001°48'0 0.0
2015-Jul-21 18:31N 46°30' W 001°48'0 0.0
2015-Jul-21 17:31N 46°30' W 001°48'0 0.0
2015-Jul-21 16:31N 46°30' W 001°48'0 0.0
2015-Jul-21 15:31N 46°30' W 001°48'0 0.0
2015-Jul-21 14:31N 46°30' W 001°48'0 0.0
2015-Jul-21 13:31N 46°30' W 001°48'0 0.0
2015-Jul-21 12:31N 46°30' W 001°48'0 0.0
2015-Jul-21 11:31N 46°30' W 001°48'0 0.0
2015-Jul-21 10:31N 46°30' W 001°48'0 0.0
2015-Jul-21 09:31N 46°30' W 001°48'0 0.0
2015-Jul-21 08:31N 46°30' W 001°48'0 0.0
2015-Jul-21 07:31N 46°30' W 001°48'0 0.0
2015-Jul-21 06:31N 46°30' W 001°48'0 0.0
2015-Jul-21 05:31N 46°30' W 001°48'0 0.0
2015-Jul-21 04:31N 46°30' W 001°48'0 0.0
2015-Jul-21 03:31N 46°30' W 001°48'0 0.0
2015-Jul-21 02:31N 46°30' W 001°48'0 0.0
2015-Jul-21 01:31N 46°30' W 001°48'0 0.0
2015-Jul-21 00:31N 46°30' W 001°48'0 0.0
2015-Jul-20 23:31N 46°30' W 001°48'0 0.0
2015-Jul-20 22:31N 46°30' W 001°48'0 0.0
2015-Jul-20 21:31N 46°30' W 001°48'0 0.0
2015-Jul-20 20:31N 46°30' W 001°48'0 0.0
2015-Jul-20 19:31N 46°30' W 001°48'0 0.0
2015-Jul-20 18:31N 46°30' W 001°48'0 0.0
2015-Jul-20 17:31N 46°30' W 001°48'0 0.0
2015-Jul-20 16:31N 46°30' W 001°48'0 0.0
2015-Jul-20 15:31N 46°30' W 001°48'0 0.0
2015-Jul-20 14:31N 46°30' W 001°48'0 0.0
2015-Jul-20 13:31N 46°30' W 001°48'0 0.0
2015-Jul-20 12:31N 46°30' W 001°48'0 0.0
2015-Jul-20 11:31N 46°30' W 001°48'0 0.0
2015-Jul-20 10:31N 46°30' W 001°48'0 0.0
2015-Jul-20 09:31N 46°30' W 001°48'0 0.0
2015-Jul-20 08:31N 46°30' W 001°48'0 0.0
2015-Jul-20 07:31N 46°30' W 001°48'0 0.0
2015-Jul-20 06:31N 46°30' W 001°48'0 0.0
2015-Jul-20 05:31N 46°30' W 001°48'0 0.0
2015-Jul-20 04:31N 46°30' W 001°48'0 0.0
2015-Jul-20 03:31N 46°30' W 001°48'0 0.0
2015-Jul-20 02:31N 46°30' W 001°48'0 0.0
2015-Jul-20 01:31N 46°30' W 001°48'0 0.0
2015-Jul-20 00:31N 46°30' W 001°48'0 0.0
2015-Jul-19 23:31N 46°30' W 001°48'0 0.0
2015-Jul-19 22:31N 46°30' W 001°48'0 0.0
2015-Jul-19 21:31N 46°30' W 001°48'0 0.0
2015-Jul-19 20:31N 46°30' W 001°48'0 0.0
2015-Jul-19 19:31N 46°30' W 001°48'0 0.0
2015-Jul-19 18:31N 46°30' W 001°48'0 0.0
2015-Jul-19 17:28N 46°30' W 001°48'0 0.0
2015-Jul-19 16:31N 46°30' W 001°48'0 0.0
2015-Jul-19 15:31N 46°30' W 001°48'0 0.0
2015-Jul-19 14:31N 46°30' W 001°48'0 0.0
2015-Jul-19 13:31N 46°30' W 001°48'0 0.0
2015-Jul-19 12:31N 46°30' W 001°48'0 0.0
2015-Jul-19 11:31N 46°30' W 001°48'0 0.0
2015-Jul-19 10:31N 46°30' W 001°48'0 0.0
2015-Jul-19 09:31N 46°30' W 001°48'0 0.0
2015-Jul-19 08:31N 46°30' W 001°48'0 0.0
2015-Jul-19 07:31N 46°30' W 001°48'0 0.0
2015-Jul-19 06:28N 46°30' W 001°48'0 0.0
2015-Jul-19 05:31N 46°30' W 001°48'  
Track history (hours):
 
Tides and Currents Weather Stations Pressure Air Temp Water Temp Dewpoint Dewpoint Depression Visibility Wind Speed Wind Dir Waves Ship Positions

Arklow Raider

Last reported at 2015-Jul-29 04:33 UTC. Time now 2015-Jul-29 04:50 UTC.
Position N 51°14' E 003°48'.

Length 90 m; draft 5.8 m.

Type: Ship. MMSI: 250001268.

Date/timePositionNaut miles runAvg speedWind from/ knotsBaromVisibWave heightAir tempDewpointWater temp
2015-Jul-29 04:33N 51°14' E 003°48'0 0.1
2015-Jul-29 03:30N 51°14' E 003°48'0 0.0
2015-Jul-29 02:33N 51°14' E 003°48'0 0.0
2015-Jul-29 01:33N 51°14' E 003°48'0 0.0
2015-Jul-29 00:30N 51°14' E 003°48'0 0.0
2015-Jul-28 23:33N 51°14' E 003°48'0 0.0
2015-Jul-28 22:33N 51°14' E 003°48'0 0.0
2015-Jul-28 21:33N 51°14' E 003°48'0 0.0
2015-Jul-28 20:33N 51°14' E 003°48'0 0.0
2015-Jul-28 19:33N 51°14' E 003°48'0 0.0
2015-Jul-28 18:33N 51°14' E 003°48'0 0.0
2015-Jul-28 17:27N 51°14' E 003°48'0 0.0
2015-Jul-28 16:33N 51°14' E 003°48'0 0.0
2015-Jul-28 15:33N 51°14' E 003°48'0 0.0
2015-Jul-28 14:33N 51°14' E 003°48'0 0.0
2015-Jul-28 13:33N 51°14' E 003°48'0 0.0
2015-Jul-28 12:33N 51°14' E 003°48'0 0.0
2015-Jul-28 11:30N 51°14' E 003°48'0 0.2
2015-Jul-28 10:33N 51°14' E 003°49'2 1.6
2015-Jul-28 09:33N 51°16' E 003°50'0 0.0
2015-Jul-28 08:30N 51°16' E 003°50'0 0.0
2015-Jul-28 07:33N 51°16' E 003°50'0 0.0
2015-Jul-28 06:30N 51°16' E 003°50'0 0.0
2015-Jul-28 05:33N 51°16' E 003°50'0 0.0
2015-Jul-28 04:33N 51°16' E 003°50'0 0.0
2015-Jul-28 03:33N 51°16' E 003°50'0 0.0
2015-Jul-28 02:33N 51°16' E 003°50'0 0.0
2015-Jul-28 01:30N 51°16' E 003°50'0 0.0
2015-Jul-28 00:33N 51°16' E 003°50'0 0.0
2015-Jul-27 23:33N 51°16' E 003°50'0 0.0
2015-Jul-27 22:30N 51°16' E 003°50'0 0.0
2015-Jul-27 21:33N 51°16' E 003°50'0 0.0
2015-Jul-27 20:33N 51°16' E 003°50'0 0.0
2015-Jul-27 19:33N 51°16' E 003°50'0 0.0
2015-Jul-27 18:33N 51°16' E 003°50'0 0.0
2015-Jul-27 17:33N 51°16' E 003°50'0 0.0
2015-Jul-27 16:33N 51°16' E 003°50'0 0.0
2015-Jul-27 15:33N 51°16' E 003°50'0 0.0
2015-Jul-27 14:27N 51°16' E 003°50'0 0.0
2015-Jul-27 13:33N 51°16' E 003°50'0 0.0
2015-Jul-27 12:33N 51°16' E 003°50'0 0.0
2015-Jul-27 11:30N 51°16' E 003°50'0 0.0
2015-Jul-27 10:30N 51°16' E 003°50'0 0.0
2015-Jul-27 09:33N 51°16' E 003°50'0 0.0
2015-Jul-27 08:33N 51°16' E 003°50'0 0.0
2015-Jul-27 07:27N 51°16' E 003°50'0 0.0
2015-Jul-27 06:33N 51°16' E 003°50'0 0.0
2015-Jul-27 05:33N 51°16' E 003°50'0 0.0
2015-Jul-27 04:33N 51°16' E 003°50'0 0.0
2015-Jul-27 03:30N 51°16' E 003°50'0 0.0
2015-Jul-27 02:30N 51°16' E 003°50'0 0.0
2015-Jul-27 01:33N 51°16' E 003°50'0 0.0
2015-Jul-27 00:33N 51°16' E 003°50'0 0.0
2015-Jul-26 23:33N 51°16' E 003°50'0 0.0
2015-Jul-26 22:30N 51°16' E 003°50'0 0.0
2015-Jul-26 21:33N 51°16' E 003°50'4 4.2
2015-Jul-26 20:33N 51°20' E 003°49'0 0.3
2015-Jul-26 19:33N 51°20' E 003°49'8 8.3
2015-Jul-26 18:33N 51°25' E 003°38'11 9.8
2015-Jul-26 17:25N 51°24' E 003°21'1210.9
2015-Jul-26 16:21N 51°24' E 003°02'810.5
2015-Jul-26 15:34N 51°22' E 002°49'7 6.8
2015-Jul-26 14:33N 51°22' E 002°38'9 7.7
2015-Jul-26 13:23N 51°20' E 002°24'6 6.8
2015-Jul-26 12:31N 51°17' E 002°16'7 6.9
2015-Jul-26 11:34N 51°14' E 002°07'8 7.7
2015-Jul-26 10:33N 51°10' E 001°56'10 9.6
2015-Jul-26 09:33N 51°04' E 001°44'325 9.8
2015-Jul-25 00:33N 48°11' W 005°20'9 8.7
2015-Jul-24 23:33N 48°04' W 005°13'17410.1
2015-Jul-24 06:19N 46°05' W 002°06'911.0
2015-Jul-24 05:29N 45°59' W 001°56'2111.0
2015-Jul-24 03:33N 45°44' W 001°34'1211.5
2015-Jul-24 02:32N 45°36' W 001°22'1411.2
2015-Jul-24 01:19N 45°34' W 001°02'2313.2
2015-Jul-23 23:33N 45°15' W 000°45'54 2.3
2015-Jul-23 00:04N 45°57' W 001°33'3 6.4
2015-Jul-22 23:33N 45°60' W 001°35'7 6.1
2015-Jul-22 22:21N 46°07' W 001°38'5 6.3
2015-Jul-22 21:33N 46°12' W 001°40'6 6.4
2015-Jul-22 20:33N 46°18' W 001°42'6 6.2
2015-Jul-22 19:33N 46°24' W 001°45'6 6.0
2015-Jul-22 18:31N 46°30' W 001°48'0 0.0
2015-Jul-22 17:31N 46°30' W 001°48'0 0.0
2015-Jul-22 16:31N 46°30' W 001°48'0 0.0
2015-Jul-22 15:31N 46°30' W 001°48'0 0.0
2015-Jul-22 14:31N 46°30' W 001°48'0 0.0
2015-Jul-22 13:31N 46°30' W 001°48'0 0.0
2015-Jul-22 12:31N 46°30' W 001°48'0 0.0
2015-Jul-22 11:31N 46°30' W 001°48'0 0.0
2015-Jul-22 10:31N 46°30' W 001°48'0 0.0
2015-Jul-22 09:31N 46°30' W 001°48'0 0.0
2015-Jul-22 08:31N 46°30' W 001°48'0 0.0
2015-Jul-22 07:28N 46°30' W 001°48'0 0.0
2015-Jul-22 06:31N 46°30' W 001°48'0 0.0
2015-Jul-22 05:31N 46°30' W 001°48'0 0.0
2015-Jul-22 04:31N 46°30' W 001°48'0 0.0
2015-Jul-22 03:31N 46°30' W 001°48'0 0.0
2015-Jul-22 02:31N 46°30' W 001°48'0 0.0
2015-Jul-22 01:31N 46°30' W 001°48'0 0.0
2015-Jul-22 00:31N 46°30' W 001°48'0 0.0
2015-Jul-21 23:31N 46°30' W 001°48'0 0.0
2015-Jul-21 22:31N 46°30' W 001°48'0 0.0
2015-Jul-21 21:31N 46°30' W 001°48'0 0.0
2015-Jul-21 20:31N 46°30' W 001°48'0 0.0
2015-Jul-21 19:31N 46°30' W 001°48'0 0.0
2015-Jul-21 18:31N 46°30' W 001°48'0 0.0
2015-Jul-21 17:31N 46°30' W 001°48'0 0.0
2015-Jul-21 16:31N 46°30' W 001°48'0 0.0
2015-Jul-21 15:31N 46°30' W 001°48'0 0.0
2015-Jul-21 14:31N 46°30' W 001°48'0 0.0
2015-Jul-21 13:31N 46°30' W 001°48'0 0.0
2015-Jul-21 12:31N 46°30' W 001°48'0 0.0
2015-Jul-21 11:31N 46°30' W 001°48'0 0.0
2015-Jul-21 10:31N 46°30' W 001°48'0 0.0
2015-Jul-21 09:31N 46°30' W 001°48'0 0.0
2015-Jul-21 08:31N 46°30' W 001°48'0 0.0
2015-Jul-21 07:31N 46°30' W 001°48'0 0.0
2015-Jul-21 06:31N 46°30' W 001°48'0 0.0
2015-Jul-21 05:31N 46°30' W 001°48'0 0.0
2015-Jul-21 04:31N 46°30' W 001°48'0 0.0
2015-Jul-21 03:31N 46°30' W 001°48'0 0.0
2015-Jul-21 02:31N 46°30' W 001°48'0 0.0
2015-Jul-21 01:31N 46°30' W 001°48'0 0.0
2015-Jul-21 00:31N 46°30' W 001°48'0 0.0
2015-Jul-20 23:31N 46°30' W 001°48'0 0.0
2015-Jul-20 22:31N 46°30' W 001°48'0 0.0
2015-Jul-20 21:31N 46°30' W 001°48'0 0.0
2015-Jul-20 20:31N 46°30' W 001°48'0 0.0
2015-Jul-20 19:31N 46°30' W 001°48'0 0.0
2015-Jul-20 18:31N 46°30' W 001°48'0 0.0
2015-Jul-20 17:31N 46°30' W 001°48'0 0.0
2015-Jul-20 16:31N 46°30' W 001°48'0 0.0
2015-Jul-20 15:31N 46°30' W 001°48'0 0.0
2015-Jul-20 14:31N 46°30' W 001°48'0 0.0
2015-Jul-20 13:31N 46°30' W 001°48'0 0.0
2015-Jul-20 12:31N 46°30' W 001°48'0 0.0
2015-Jul-20 11:31N 46°30' W 001°48'0 0.0
2015-Jul-20 10:31N 46°30' W 001°48'0 0.0
2015-Jul-20 09:31N 46°30' W 001°48'0 0.0
2015-Jul-20 08:31N 46°30' W 001°48'0 0.0
2015-Jul-20 07:31N 46°30' W 001°48'0 0.0
2015-Jul-20 06:31N 46°30' W 001°48'0 0.0
2015-Jul-20 05:31N 46°30' W 001°48'0 0.0
2015-Jul-20 04:31N 46°30' W 001°48'0 0.0
2015-Jul-20 03:31N 46°30' W 001°48'0 0.0
2015-Jul-20 02:31N 46°30' W 001°48'0 0.0
2015-Jul-20 01:31N 46°30' W 001°48'0 0.0
2015-Jul-20 00:31N 46°30' W 001°48'0 0.0
2015-Jul-19 23:31N 46°30' W 001°48'0 0.0
2015-Jul-19 22:31N 46°30' W 001°48'0 0.0
2015-Jul-19 21:31N 46°30' W 001°48'0 0.0
2015-Jul-19 20:31N 46°30' W 001°48'0 0.0
2015-Jul-19 19:31N 46°30' W 001°48'0 0.0
2015-Jul-19 18:31N 46°30' W 001°48'0 0.0
2015-Jul-19 17:28N 46°30' W 001°48'0 0.0
2015-Jul-19 16:31N 46°30' W 001°48'0 0.0
2015-Jul-19 15:31N 46°30' W 001°48'0 0.0
2015-Jul-19 14:31N 46°30' W 001°48'0 0.0
2015-Jul-19 13:31N 46°30' W 001°48'0 0.0
2015-Jul-19 12:31N 46°30' W 001°48'0 0.0
2015-Jul-19 11:31N 46°30' W 001°48'0 0.0
2015-Jul-19 10:31N 46°30' W 001°48'0 0.0
2015-Jul-19 09:31N 46°30' W 001°48'0 0.0
2015-Jul-19 08:31N 46°30' W 001°48'0 0.0
2015-Jul-19 07:31N 46°30' W 001°48'0 0.0
2015-Jul-19 06:28N 46°30' W 001°48'0 0.0
2015-Jul-19 05:31N 46°30' W 001°48'  

Dump ship's entire track history